createdAt,value
2022-10-31T00:03:19.389Z,11.92
2022-10-31T00:08:20.876Z,11.96
2022-10-31T00:18:29.422Z,11.85
2022-10-31T00:23:30.993Z,11.87
2022-10-31T00:28:33.098Z,11.85
2022-10-31T00:33:37.602Z,11.89
2022-10-31T00:38:39.325Z,11.99
2022-10-31T00:43:40.879Z,11.95
2022-10-31T00:48:43.107Z,11.97
2022-10-31T00:53:44.938Z,12.07
2022-10-31T00:58:47.583Z,12.00
2022-10-31T01:03:49.146Z,12.00
2022-10-31T01:08:50.815Z,12.11
2022-10-31T01:13:54.161Z,12.01
2022-10-31T01:18:56.129Z,12.00
2022-10-31T01:23:58.031Z,11.97
2022-10-31T01:29:02.410Z,12.02
2022-10-31T01:34:04.273Z,12.10
2022-10-31T01:39:10.435Z,11.95
2022-10-31T01:44:14.729Z,11.99
2022-10-31T01:49:24.784Z,11.79
2022-10-31T01:54:31.015Z,11.78
2022-10-31T01:59:35.133Z,11.75
2022-10-31T02:04:37.492Z,11.65
2022-10-31T02:09:40.821Z,11.70
2022-10-31T02:14:43.193Z,11.52
2022-10-31T02:20:13.947Z,11.62
2022-10-31T02:25:30.308Z,11.50
2022-10-31T02:30:54.872Z,11.47
2022-10-31T02:36:11.700Z,11.50
2022-10-31T02:41:25.928Z,11.40
2022-10-31T02:46:44.201Z,11.45
2022-10-31T02:51:46.436Z,11.36
2022-10-31T02:56:50.170Z,11.18
2022-10-31T03:02:04.045Z,11.28
2022-10-31T03:07:26.644Z,11.24
2022-10-31T03:12:36.433Z,11.09
2022-10-31T03:17:57.274Z,11.10
2022-10-31T03:23:02.028Z,10.97
2022-10-31T03:28:06.841Z,10.97
2022-10-31T03:33:14.421Z,10.93
2022-10-31T03:38:16.066Z,10.90
2022-10-31T03:48:29.867Z,10.85
2022-10-31T03:54:13.183Z,10.84
2022-10-31T03:59:25.378Z,10.69
2022-10-31T04:04:28.472Z,10.73
2022-10-31T04:09:34.396Z,10.61
2022-10-31T04:14:40.890Z,10.57
2022-10-31T04:19:42.600Z,10.61
2022-10-31T04:24:44.259Z,10.50
2022-10-31T04:29:48.323Z,10.43
2022-10-31T04:34:52.350Z,10.44
2022-10-31T04:39:53.893Z,10.64
2022-10-31T04:44:55.400Z,10.58
2022-10-31T04:49:56.926Z,10.61
2022-10-31T04:54:58.441Z,10.48
2022-10-31T04:59:59.976Z,10.38
2022-10-31T05:05:01.589Z,10.39
2022-10-31T05:10:03.128Z,10.38
2022-10-31T05:15:06.250Z,10.47
2022-10-31T05:20:08.174Z,10.58
2022-10-31T05:25:09.873Z,10.45
2022-10-31T05:30:13.693Z,10.41
2022-10-31T05:35:19.431Z,10.38
2022-10-31T05:40:22.120Z,10.34
2022-10-31T05:45:24.092Z,10.42
2022-10-31T05:50:27.178Z,10.55
2022-10-31T05:55:29.755Z,10.63
2022-10-31T06:00:31.297Z,10.83
2022-10-31T06:05:33.530Z,10.89
2022-10-31T06:10:35.634Z,10.92
2022-10-31T06:15:37.162Z,11.06
2022-10-31T06:20:38.731Z,11.10
2022-10-31T06:25:40.260Z,10.87
2022-10-31T06:30:41.833Z,10.86
2022-10-31T06:35:49.574Z,10.89
2022-10-31T06:40:51.163Z,10.86
2022-10-31T06:45:52.724Z,10.92
2022-10-31T06:50:59.407Z,10.90
2022-10-31T06:56:01.261Z,10.95
2022-10-31T07:01:03.022Z,11.01
2022-10-31T07:06:05.644Z,11.16
2022-10-31T07:11:07.272Z,11.05
2022-10-31T07:16:09.341Z,11.14
2022-10-31T07:21:10.916Z,11.14
2022-10-31T07:26:12.534Z,11.20
2022-10-31T07:31:14.102Z,11.44
2022-10-31T07:36:16.560Z,11.42
2022-10-31T07:41:18.132Z,11.54
2022-10-31T07:46:19.667Z,11.64
2022-10-31T07:51:23.879Z,11.86
2022-10-31T07:56:25.446Z,11.94
2022-10-31T08:01:27.141Z,11.98
2022-10-31T08:06:28.684Z,12.16
2022-10-31T08:11:30.214Z,12.06
2022-10-31T08:16:31.748Z,12.27
2022-10-31T08:21:33.719Z,12.34
2022-10-31T08:26:35.252Z,12.61
2022-10-31T08:37:04.182Z,12.89
2022-10-31T08:42:05.727Z,13.04
2022-10-31T08:47:07.326Z,13.23
2022-10-31T08:52:14.197Z,13.10
2022-10-31T08:57:16.050Z,13.21
2022-10-31T09:02:17.672Z,13.47
2022-10-31T09:07:21.184Z,13.47
2022-10-31T09:12:24.897Z,13.61
2022-10-31T09:17:27.725Z,13.80
2022-10-31T09:22:29.274Z,13.86
2022-10-31T09:27:30.829Z,13.89
2022-10-31T09:32:32.482Z,13.95
2022-10-31T09:37:34.017Z,14.11
2022-10-31T09:42:48.886Z,14.42
2022-10-31T09:48:11.265Z,14.43
2022-10-31T09:53:34.062Z,14.49
2022-10-31T09:58:44.623Z,14.40
2022-10-31T10:03:49.379Z,14.43
2022-10-31T10:08:50.984Z,14.37
2022-10-31T10:14:01.270Z,14.64
2022-10-31T10:19:18.241Z,14.73
2022-10-31T10:25:11.281Z,14.61
2022-10-31T10:30:19.764Z,14.38
2022-10-31T10:35:37.310Z,14.20
2022-10-31T10:40:39.091Z,14.08
2022-10-31T10:46:00.065Z,14.10
2022-10-31T10:51:04.656Z,13.84
2022-10-31T10:56:33.707Z,13.80
2022-10-31T11:01:35.269Z,13.89
2022-10-31T11:06:36.774Z,13.96
2022-10-31T11:11:39.768Z,13.98
2022-10-31T11:16:45.643Z,14.21
2022-10-31T11:21:53.684Z,14.17
2022-10-31T11:27:14.715Z,14.23
2022-10-31T11:32:25.047Z,14.18
2022-10-31T11:37:30.005Z,14.18
2022-10-31T11:42:39.894Z,14.28
2022-10-31T11:47:45.862Z,14.55
2022-10-31T11:52:47.976Z,14.56
2022-10-31T11:57:52.437Z,14.58
2022-10-31T12:03:05.990Z,14.62
2022-10-31T12:08:12.326Z,14.54
2022-10-31T12:13:31.506Z,14.64
2022-10-31T12:18:49.227Z,14.57
2022-10-31T12:24:06.428Z,14.50
2022-10-31T12:29:32.271Z,14.33
2022-10-31T12:34:52.941Z,14.44
2022-10-31T12:39:57.312Z,14.62
2022-10-31T12:45:15.432Z,14.52
2022-10-31T12:50:36.184Z,14.54
2022-10-31T12:56:01.820Z,14.43
2022-10-31T13:01:16.213Z,14.35
2022-10-31T13:06:22.707Z,14.39
2022-10-31T13:11:33.273Z,14.41
2022-10-31T13:16:41.549Z,14.39
2022-10-31T13:21:45.816Z,14.61
2022-10-31T13:26:55.038Z,14.46
2022-10-31T13:31:56.702Z,14.55
2022-10-31T13:37:11.124Z,14.61
2022-10-31T13:42:42.965Z,14.63
2022-10-31T13:47:55.315Z,14.61
2022-10-31T13:53:18.642Z,14.74
2022-10-31T13:58:32.785Z,14.74
2022-10-31T14:04:03.612Z,14.76
2022-10-31T14:08:59.395Z,14.78
2022-10-31T14:14:02.731Z,14.73
2022-10-31T14:19:21.518Z,14.73
2022-10-31T14:24:26.002Z,14.82
2022-10-31T14:29:32.416Z,14.59
2022-10-31T14:34:38.414Z,14.69
2022-10-31T14:40:01.304Z,14.58
2022-10-31T14:45:28.627Z,14.56
2022-10-31T14:50:48.784Z,14.49
2022-10-31T14:55:53.361Z,14.57
2022-10-31T15:00:57.437Z,14.63
2022-10-31T15:06:05.159Z,14.57
2022-10-31T15:11:15.724Z,14.57
2022-10-31T15:21:45.828Z,14.47
2022-10-31T15:26:49.908Z,14.47
2022-10-31T15:31:59.644Z,14.43
2022-10-31T15:37:01.226Z,14.43
2022-10-31T15:42:02.986Z,14.36
2022-10-31T15:47:06.338Z,14.35
2022-10-31T15:52:10.696Z,14.35
2022-10-31T15:57:13.088Z,14.35
2022-10-31T16:02:16.105Z,14.31
2022-10-31T16:07:23.213Z,14.32
2022-10-31T16:12:30.338Z,14.31
2022-10-31T16:17:32.783Z,14.28
2022-10-31T16:22:39.686Z,14.28
2022-10-31T16:27:53.859Z,14.27
2022-10-31T16:32:57.442Z,14.28
2022-10-31T16:37:59.135Z,14.28
2022-10-31T16:43:01.981Z,14.27
2022-10-31T16:48:15.518Z,14.25
2022-10-31T16:53:18.372Z,14.24
2022-10-31T16:58:26.246Z,14.15
2022-10-31T17:03:28.120Z,14.14
2022-10-31T17:08:30.841Z,14.14
2022-10-31T17:13:34.678Z,14.14
2022-10-31T17:18:36.141Z,14.12
2022-10-31T17:23:38.561Z,14.07
2022-10-31T17:28:40.156Z,14.06
2022-10-31T17:33:44.067Z,14.05
2022-10-31T17:38:45.552Z,14.02
2022-10-31T17:43:47.051Z,14.02
2022-10-31T17:48:48.538Z,14.02
2022-10-31T17:53:50.044Z,14.01
2022-10-31T17:58:51.605Z,14.02
2022-10-31T18:03:53.097Z,14.03
2022-10-31T18:08:57.871Z,14.03
2022-10-31T18:14:00.161Z,13.98
2022-10-31T18:19:02.044Z,13.93
2022-10-31T18:24:03.680Z,13.94
2022-10-31T18:29:05.448Z,13.96
2022-10-31T18:34:06.984Z,13.93
2022-10-31T18:39:08.505Z,13.91
2022-10-31T18:44:10.140Z,13.86
2022-10-31T18:49:11.625Z,13.84
2022-10-31T18:54:13.161Z,13.80
2022-10-31T18:59:14.701Z,13.78
2022-10-31T19:04:16.713Z,13.63
2022-10-31T19:09:18.186Z,13.65
2022-10-31T19:14:19.737Z,13.64
2022-10-31T19:19:21.224Z,13.59
2022-10-31T19:24:22.799Z,13.56
2022-10-31T19:29:24.315Z,13.54
2022-10-31T19:34:25.817Z,13.55
2022-10-31T19:39:27.315Z,13.50
2022-10-31T19:44:30.884Z,13.48
2022-10-31T19:49:32.521Z,13.48
2022-10-31T19:54:34.287Z,13.47
2022-10-31T19:59:39.363Z,13.46
2022-10-31T20:04:41.113Z,13.51
2022-10-31T20:09:45.551Z,13.53
2022-10-31T20:14:48.671Z,13.49
2022-10-31T20:19:50.226Z,13.49
2022-10-31T20:24:51.909Z,13.53
2022-10-31T20:29:53.406Z,13.52
2022-10-31T20:34:54.901Z,13.52
2022-10-31T20:39:56.723Z,13.56
2022-10-31T20:44:58.321Z,13.53
2022-10-31T20:49:59.827Z,13.52
2022-10-31T20:55:01.377Z,13.52
2022-10-31T21:00:04.192Z,13.56
2022-10-31T21:05:08.313Z,13.51
2022-10-31T21:10:16.072Z,13.55
2022-10-31T21:15:17.620Z,13.56
2022-10-31T21:20:19.164Z,13.63
2022-10-31T21:25:21.270Z,13.70
2022-10-31T21:30:22.727Z,13.75
2022-10-31T21:35:24.171Z,13.79
2022-10-31T21:40:26.645Z,13.82
2022-10-31T21:45:28.116Z,13.83
2022-10-31T21:50:30.403Z,13.83
2022-10-31T21:55:31.859Z,13.86
2022-10-31T22:00:33.322Z,13.88
2022-10-31T22:05:34.992Z,13.89
2022-10-31T22:10:36.452Z,13.91
2022-10-31T22:15:37.945Z,13.93
2022-10-31T22:20:39.396Z,13.92
2022-10-31T22:25:40.867Z,13.92
2022-10-31T22:30:42.336Z,13.93
2022-10-31T22:35:43.870Z,13.94
2022-10-31T22:40:45.652Z,13.94
2022-10-31T22:45:54.576Z,13.98
2022-10-31T22:50:56.084Z,14.01
2022-10-31T22:55:57.535Z,14.03
2022-10-31T23:00:59.493Z,14.08
2022-10-31T23:06:02.468Z,14.10
2022-10-31T23:11:33.514Z,14.10
2022-10-31T23:16:56.883Z,14.09
2022-10-31T23:22:03.970Z,14.13
2022-10-31T23:27:11.458Z,14.20
2022-10-31T23:32:22.322Z,14.21
2022-10-31T23:37:26.704Z,14.21
2022-10-31T23:42:28.515Z,14.21
2022-10-31T23:47:29.999Z,14.20
2022-10-31T23:52:31.472Z,14.22
2022-10-31T23:57:32.969Z,14.21
